Météo Nord-Pas-de-Calais   La météo au plus près de chez vous

Station météorologique

Observations météo à Istres (13047)

13047001 23 m Dernier relevé à 07:06
20.8°C
Humidité 50 % Vent 10.4 km/h 1018.2 hPa

Journée consultée

Vendredi 4 Septembre 2026

Synthèse de la journée

Périodes de référence en UTC

Température maximale

34°C

à 18:00

06h 06h

Température minimale

19.9°C

à 06:30

18h 18h

Rafale maximale

31 km/h

à 02:12

00h 00h

Précipitations

0 mm

Cumul quotidien

06h 06h

Graphiques de la journée

Heure locale Réduire

Données détaillées

Relevés météo

Pas de 6 minutes Afficher les relevés infra-horaires
Relevés météo détaillés à Istres pour le Vendredi 4 Septembre 2026
Heure Température °C Point de rosée °C Humidité % Vent moyen (raf.), km/h Précipitations mm Visibilité m Pression hPa
07:06 20.8 °C 11.1 °C 54 % 13 km/h (18 km/h) 0 mm0 mm 60000 m 1018.4 hPa
07:00 21 °C 11.1 °C 53 % 13 km/h (17 km/h) 0 mm0 mm 60000 m 1018.5 hPa
06:54 20.5 °C 11.1 °C 55 % 11 km/h (16 km/h) 0 mm0 mm 60000 m 1018.5 hPa
06:48 20.8 °C 10.9 °C 53 % 8 km/h (12 km/h) 0 mm0 mm 60000 m 1018.4 hPa
06:42 20.6 °C 11 °C 54 % 6 km/h (12 km/h) 0 mm0 mm 60000 m 1018.5 hPa
06:36 20.4 °C 11.1 °C 55 % 10 km/h (15 km/h) 0 mm0 mm 60000 m 1018.4 hPa
06:30 19.9 °C 11.1 °C 57 % 13 km/h (16 km/h) 0 mm0 mm 60000 m 1018.5 hPa
06:24 20 °C 11 °C 56 % 11 km/h (15 km/h) 0 mm0 mm 60000 m 1018.5 hPa
06:18 20.9 °C 11 °C 53 % 11 km/h (13 km/h) 0 mm0 mm 60000 m 1018.4 hPa
06:12 21.6 °C 10.7 °C 50 % 10 km/h (13 km/h) 0 mm0 mm 60000 m 1018.3 hPa
06:06 21.5 °C 10.6 °C 50 % 10 km/h (14 km/h) 0 mm0 mm 60000 m 1018.2 hPa
06:00 21.6 °C 10.7 °C 50 % 12 km/h (15 km/h) 0 mm0 mm 60000 m 1018.2 hPa
05:54 21.8 °C 10.6 °C 49 % 12 km/h (15 km/h) 0 mm0 mm 60000 m 1018.1 hPa
05:48 21.9 °C 10.7 °C 49 % 11 km/h (16 km/h) 0 mm0 mm 60000 m 1018.1 hPa
05:42 21.8 °C 10.6 °C 49 % 12 km/h (17 km/h) 0 mm0 mm 60000 m 1018.2 hPa
05:36 21.9 °C 10.7 °C 49 % 13 km/h (18 km/h) 0 mm0 mm 60000 m 1018.2 hPa
05:30 22.1 °C 10.6 °C 48 % 12 km/h (17 km/h) 0 mm0 mm 60000 m 1018.2 hPa
05:24 22.1 °C 10.3 °C 47 % 10 km/h (15 km/h) 0 mm0 mm 60000 m 1018.3 hPa
05:18 22.3 °C 10.4 °C 47 % 9 km/h (15 km/h) 0 mm0 mm 60000 m 1018.3 hPa
05:12 23.1 °C 10.5 °C 45 % 13 km/h (18 km/h) 0 mm0 mm 60000 m 1018.4 hPa
05:06 23.1 °C 10.2 °C 44 % 12 km/h (18 km/h) 0 mm0 mm 60000 m 1018.4 hPa
05:00 22.9 °C 10.3 °C 45 % 10 km/h (14 km/h) 0 mm0 mm 60000 m 1018.4 hPa
04:54 22.9 °C 10.3 °C 45 % 10 km/h (15 km/h) 0 mm0 mm 60000 m 1018.5 hPa
04:48 22.9 °C 10.7 °C 46 % 11 km/h (16 km/h) 0 mm0 mm 60000 m 1018.6 hPa
04:42 23.7 °C 10.4 °C 43 % 13 km/h (17 km/h) 0 mm0 mm 60000 m 1018.6 hPa
04:36 23.6 °C 10.3 °C 43 % 12 km/h (17 km/h) 0 mm0 mm 60000 m 1018.6 hPa
04:30 23 °C 10.4 °C 45 % 9 km/h (12 km/h) 0 mm0 mm 60000 m 1018.6 hPa
04:24 23.3 °C 10.4 °C 44 % 10 km/h (13 km/h) 0 mm0 mm 60000 m 1018.7 hPa
04:18 22.8 °C 10.6 °C 46 % 12 km/h (14 km/h) 0 mm0 mm 60000 m 1018.7 hPa
04:12 22.7 °C 10.5 °C 46 % 10 km/h (14 km/h) 0 mm0 mm 60000 m 1018.7 hPa
04:06 22.9 °C 10.7 °C 46 % 5 km/h (9 km/h) 0 mm0 mm 60000 m 1018.8 hPa
04:00 23 °C 10.4 °C 45 % 6 km/h (10 km/h) 0 mm0 mm 60000 m 1018.8 hPa
03:54 23.3 °C 10.4 °C 44 % 9 km/h (14 km/h) 0 mm0 mm 60000 m 1018.8 hPa
03:48 24.1 °C 10.4 °C 42 % 12 km/h (17 km/h) 0 mm0 mm 60000 m 1018.7 hPa
03:42 24.4 °C 10.3 °C 41 % 13 km/h (18 km/h) 0 mm0 mm 60000 m 1018.8 hPa
03:36 24.2 °C 10.1 °C 41 % 13 km/h (17 km/h) 0 mm0 mm 60000 m 1018.8 hPa
03:30 24.5 °C 10 °C 40 % 15 km/h (20 km/h) 0 mm0 mm 60000 m 1018.7 hPa
03:24 24.7 °C 9.8 °C 39 % 13 km/h (20 km/h) 0 mm0 mm 60000 m 1018.7 hPa
03:18 24.8 °C 9.9 °C 39 % 9 km/h (13 km/h) 0 mm0 mm 60000 m 1018.7 hPa
03:12 25.1 °C 9.8 °C 38 % 8 km/h (14 km/h) 0 mm0 mm 60000 m 1018.6 hPa
03:06 25.2 °C 9.5 °C 37 % 7 km/h (14 km/h) 0 mm0 mm 60000 m 1018.7 hPa
03:00 25.4 °C 9.2 °C 36 % 9 km/h (27 km/h) 0 mm0 mm 60000 m 1018.6 hPa
02:54 25.9 °C 9.7 °C 36 % 15 km/h (27 km/h) 0 mm0 mm 60000 m 1018.7 hPa
02:48 25.8 °C 9.6 °C 36 % 18 km/h (28 km/h) 0 mm0 mm 60000 m 1018.8 hPa
02:42 25.9 °C 9.7 °C 36 % 22 km/h (30 km/h) 0 mm0 mm 60000 m 1018.8 hPa
02:36 26.2 °C 9.5 °C 35 % 22 km/h (30 km/h) 0 mm0 mm 60000 m 1018.8 hPa
02:30 26.5 °C 9.4 °C 34 % 18 km/h (30 km/h) 0 mm0 mm 60000 m 1019 hPa
02:24 26.4 °C 8.8 °C 33 % 18 km/h (24 km/h) 0 mm0 mm 60000 m 1019 hPa
02:18 26.3 °C 8.7 °C 33 % 19 km/h (27 km/h) 0 mm0 mm 60000 m 1019 hPa
02:12 26.7 °C 9.1 °C 33 % 22 km/h (31 km/h) 0 mm0 mm 60000 m 1018.8 hPa
02:06 26.8 °C 8.7 °C 32 % 22 km/h (31 km/h) 0 mm0 mm 60000 m 1018.8 hPa
02:00 26.9 °C 8.8 °C 32 % 19 km/h (27 km/h) 0 mm0 mm 60000 m 1018.9 hPa
01:54 26.7 °C 8.6 °C 32 % 13 km/h (21 km/h) 0 mm0 mm 60000 m 1019.1 hPa
01:48 26.8 °C 8.7 °C 32 % 13 km/h (21 km/h) 0 mm0 mm 60000 m 1019.1 hPa
01:42 27 °C 8.4 °C 31 % 17 km/h (27 km/h) 0 mm0 mm 60000 m 1019.1 hPa
01:36 26.8 °C 8.7 °C 32 % 15 km/h (27 km/h) 0 mm0 mm 60000 m 1019 hPa
01:30 26.7 °C 8.6 °C 32 % 14 km/h (21 km/h) 0 mm0 mm 60000 m 1019 hPa
01:24 27.1 °C 8.5 °C 31 % 15 km/h (24 km/h) 0 mm0 mm 60000 m 1019.1 hPa
01:18 27.3 °C 8.7 °C 31 % 15 km/h (24 km/h) 0 mm0 mm 60000 m 1019.1 hPa
01:12 27.1 °C 9 °C 32 % 13 km/h (19 km/h) 0 mm0 mm 60000 m 1019.2 hPa
01:06 27 °C 8.9 °C 32 % 13 km/h (20 km/h) 0 mm0 mm 60000 m 1019.1 hPa
01:00 26.9 °C 8.8 °C 32 % 12 km/h (20 km/h) 0 mm0 mm 60000 m 1019 hPa
00:54 27 °C 8.4 °C 31 % 12 km/h (18 km/h) 0 mm0 mm 60000 m 1018.9 hPa
00:48 26.8 °C 8.7 °C 32 % 14 km/h (19 km/h) 0 mm0 mm 60000 m 1018.9 hPa
00:42 28 °C 8.8 °C 30 % 19 km/h (29 km/h) 0 mm0 mm 60000 m 1018.9 hPa
00:36 28.6 °C 8.8 °C 29 % 23 km/h (31 km/h) 0 mm0 mm 60000 m 1019 hPa
00:30 28.5 °C 8.7 °C 29 % 22 km/h (31 km/h) 0 mm0 mm 60000 m 1019.1 hPa
00:24 28.8 °C 9 °C 29 % 21 km/h (31 km/h) 0 mm0 mm 60000 m 1019 hPa
00:18 27.9 °C 9.2 °C 31 % 15 km/h (26 km/h) 0 mm0 mm 60000 m 1019 hPa
00:12 25.1 °C 9.8 °C 38 % 8 km/h (20 km/h) 0 mm0 mm 60000 m 1019 hPa
00:06 23.7 °C 10 °C 42 % 6 km/h (12 km/h) 0 mm0 mm 60000 m 1019 hPa
00:00 22.9 °C 10.7 °C 46 % 10 km/h (17 km/h) 0 mm0 mm 60000 m 1019.1 hPa

Données via Météo-France

Relevés météo à Istres

Cette page rassemble les observations de la station de Istres : température, humidité, vent, précipitations et pression atmosphérique. Les graphiques facilitent le suivi de la journée, tandis que le tableau donne accès aux mesures horaires et infra-horaires disponibles.

Pour replacer ces mesures dans leur contexte, consultez la climatologie de Istres ainsi que ses normales et records. Retrouvez aussi la carte des observations météo en temps réel.